sensor_id;sensor_type;location;lat;lon;timestamp;pressure;altitude;pressure_sealevel;temperature;humidity
11672;BME280;5892;43.412;24.612;2023-05-07T00:01:12;100239.31;;;12.14;95.85
11672;BME280;5892;43.412;24.612;2023-05-07T00:03:39;100264.38;;;12.21;96.22
11672;BME280;5892;43.412;24.612;2023-05-07T00:06:07;100275.22;;;12.35;95.78
11672;BME280;5892;43.412;24.612;2023-05-07T00:08:35;100256.28;;;12.16;96.03
11672;BME280;5892;43.412;24.612;2023-05-07T00:11:02;100267.75;;;12.36;95.00
11672;BME280;5892;43.412;24.612;2023-05-07T00:13:29;100277.47;;;12.42;94.70
11672;BME280;5892;43.412;24.612;2023-05-07T00:16:00;100252.44;;;12.35;94.52
11672;BME280;5892;43.412;24.612;2023-05-07T00:18:27;100270.81;;;12.51;95.03
11672;BME280;5892;43.412;24.612;2023-05-07T00:20:54;100267.59;;;12.58;95.02
11672;BME280;5892;43.412;24.612;2023-05-07T00:23:21;100249.00;;;12.63;94.96
11672;BME280;5892;43.412;24.612;2023-05-07T00:25:49;100259.97;;;12.72;94.55
11672;BME280;5892;43.412;24.612;2023-05-07T00:28:16;100250.63;;;12.64;95.00
11672;BME280;5892;43.412;24.612;2023-05-07T00:30:43;100254.16;;;12.73;95.32
11672;BME280;5892;43.412;24.612;2023-05-07T00:33:10;100251.56;;;12.77;95.68
11672;BME280;5892;43.412;24.612;2023-05-07T00:35:37;100243.16;;;12.73;95.58
11672;BME280;5892;43.412;24.612;2023-05-07T00:38:04;100253.97;;;12.79;96.43
11672;BME280;5892;43.412;24.612;2023-05-07T00:40:31;100250.09;;;12.80;96.44
11672;BME280;5892;43.412;24.612;2023-05-07T00:42:59;100197.28;;;12.48;96.38
11672;BME280;5892;43.412;24.612;2023-05-07T00:45:27;100260.63;;;12.86;96.02
11672;BME280;5892;43.412;24.612;2023-05-07T00:47:55;100248.03;;;12.77;95.79
11672;BME280;5892;43.412;24.612;2023-05-07T00:50:22;100254.16;;;12.82;96.25
11672;BME280;5892;43.412;24.612;2023-05-07T00:52:49;100264.66;;;12.80;96.38
11672;BME280;5892;43.412;24.612;2023-05-07T00:55:16;100261.94;;;12.71;97.09
11672;BME280;5892;43.412;24.612;2023-05-07T00:57:43;100265.47;;;12.72;97.63
11672;BME280;5892;43.412;24.612;2023-05-07T01:00:14;100258.88;;;12.64;97.67
11672;BME280;5892;43.412;24.612;2023-05-07T01:02:41;100245.13;;;12.56;98.34
11672;BME280;5892;43.412;24.612;2023-05-07T01:05:10;100267.44;;;12.63;98.69
11672;BME280;5892;43.412;24.612;2023-05-07T01:07:38;100249.81;;;12.47;98.83
11672;BME280;5892;43.412;24.612;2023-05-07T01:10:07;100259.84;;;12.60;98.89
11672;BME280;5892;43.412;24.612;2023-05-07T01:12:35;100238.19;;;12.41;99.61
11672;BME280;5892;43.412;24.612;2023-05-07T01:15:03;100264.38;;;12.39;100.00
11672;BME280;5892;43.412;24.612;2023-05-07T01:17:34;100256.63;;;12.23;100.00
11672;BME280;5892;43.412;24.612;2023-05-07T01:20:02;100254.81;;;12.10;100.00
11672;BME280;5892;43.412;24.612;2023-05-07T01:22:32;100257.56;;;12.10;100.00
11672;BME280;5892;43.412;24.612;2023-05-07T01:25:00;100255.97;;;12.18;100.00
11672;BME280;5892;43.412;24.612;2023-05-07T01:27:28;100247.41;;;12.19;100.00
11672;BME280;5892;43.412;24.612;2023-05-07T01:29:55;100247.56;;;12.23;100.00
11672;BME280;5892;43.412;24.612;2023-05-07T01:32:28;100235.78;;;12.14;100.00
11672;BME280;5892;43.412;24.612;2023-05-07T01:34:57;100236.28;;;12.24;100.00
11672;BME280;5892;43.412;24.612;2023-05-07T01:37:25;100240.28;;;12.27;100.00
11672;BME280;5892;43.412;24.612;2023-05-07T01:39:54;100245.94;;;12.22;100.00
11672;BME280;5892;43.412;24.612;2023-05-07T01:42:22;100243.34;;;12.17;100.00
11672;BME280;5892;43.412;24.612;2023-05-07T01:44:49;100242.72;;;12.11;100.00
11672;BME280;5892;43.412;24.612;2023-05-07T01:47:16;100229.59;;;11.91;100.00
11672;BME280;5892;43.412;24.612;2023-05-07T01:49:43;100259.00;;;11.91;100.00
11672;BME280;5892;43.412;24.612;2023-05-07T01:52:10;100195.28;;;11.45;100.00
11672;BME280;5892;43.412;24.612;2023-05-07T01:54:37;100245.41;;;11.77;100.00
11672;BME280;5892;43.412;24.612;2023-05-07T01:57:06;100238.44;;;11.71;100.00
11672;BME280;5892;43.412;24.612;2023-05-07T01:59:33;100237.94;;;11.69;100.00
11672;BME280;5892;43.412;24.612;2023-05-07T02:01:59;100238.22;;;11.67;100.00
11672;BME280;5892;43.412;24.612;2023-05-07T02:04:27;100237.94;;;11.69;100.00
11672;BME280;5892;43.412;24.612;2023-05-07T02:06:53;100220.09;;;11.40;100.00
11672;BME280;5892;43.412;24.612;2023-05-07T02:09:21;100231.31;;;11.61;100.00
11672;BME280;5892;43.412;24.612;2023-05-07T02:11:48;100232.13;;;11.62;100.00
11672;BME280;5892;43.412;24.612;2023-05-07T02:14:16;100230.13;;;11.54;100.00
11672;BME280;5892;43.412;24.612;2023-05-07T02:16:43;100238.72;;;11.61;100.00
11672;BME280;5892;43.412;24.612;2023-05-07T02:19:10;100230.16;;;11.62;100.00
11672;BME280;5892;43.412;24.612;2023-05-07T02:21:37;100229.16;;;11.50;100.00
11672;BME280;5892;43.412;24.612;2023-05-07T02:24:04;100233.03;;;11.48;100.00
11672;BME280;5892;43.412;24.612;2023-05-07T02:26:31;100220.06;;;11.32;100.00
11672;BME280;5892;43.412;24.612;2023-05-07T02:28:58;100228.97;;;11.37;100.00
11672;BME280;5892;43.412;24.612;2023-05-07T02:31:26;100224.44;;;11.33;100.00
11672;BME280;5892;43.412;24.612;2023-05-07T02:33:53;100204.25;;;11.29;100.00
11672;BME280;5892;43.412;24.612;2023-05-07T02:36:20;100221.09;;;11.44;100.00
11672;BME280;5892;43.412;24.612;2023-05-07T02:38:47;100216.34;;;11.36;100.00
11672;BME280;5892;43.412;24.612;2023-05-07T02:41:14;100183.97;;;10.99;100.00
11672;BME280;5892;43.412;24.612;2023-05-07T02:43:40;100212.56;;;11.15;100.00
11672;BME280;5892;43.412;24.612;2023-05-07T02:46:08;100214.84;;;11.13;100.00
11672;BME280;5892;43.412;24.612;2023-05-07T02:48:37;100219.63;;;10.99;100.00
11672;BME280;5892;43.412;24.612;2023-05-07T02:51:04;100169.13;;;10.69;100.00
11672;BME280;5892;43.412;24.612;2023-05-07T02:53:31;100216.09;;;11.07;100.00
11672;BME280;5892;43.412;24.612;2023-05-07T02:55:59;100208.44;;;10.95;100.00
11672;BME280;5892;43.412;24.612;2023-05-07T02:58:27;100214.63;;;11.01;100.00
11672;BME280;5892;43.412;24.612;2023-05-07T03:00:54;100220.41;;;10.99;100.00
11672;BME280;5892;43.412;24.612;2023-05-07T03:03:24;100219.28;;;11.00;100.00
11672;BME280;5892;43.412;24.612;2023-05-07T03:05:52;100187.88;;;10.76;100.00
11672;BME280;5892;43.412;24.612;2023-05-07T03:08:19;100218.53;;;11.09;100.00
11672;BME280;5892;43.412;24.612;2023-05-07T03:10:46;100225.00;;;11.13;100.00
11672;BME280;5892;43.412;24.612;2023-05-07T03:13:13;100231.63;;;11.20;100.00
11672;BME280;5892;43.412;24.612;2023-05-07T03:15:40;100215.81;;;11.17;100.00
11672;BME280;5892;43.412;24.612;2023-05-07T03:18:06;100228.94;;;11.29;100.00
11672;BME280;5892;43.412;24.612;2023-05-07T03:20:33;100217.25;;;11.63;100.00
11672;BME280;5892;43.412;24.612;2023-05-07T03:23:03;100219.13;;;11.93;100.00
11672;BME280;5892;43.412;24.612;2023-05-07T03:25:30;100222.03;;;12.22;100.00
11672;BME280;5892;43.412;24.612;2023-05-07T03:27:56;100230.75;;;12.33;100.00
11672;BME280;5892;43.412;24.612;2023-05-07T03:30:24;100207.47;;;12.39;100.00
11672;BME280;5892;43.412;24.612;2023-05-07T03:32:50;100223.63;;;12.66;100.00
11672;BME280;5892;43.412;24.612;2023-05-07T03:35:17;100235.69;;;12.83;100.00
11672;BME280;5892;43.412;24.612;2023-05-07T03:37:44;100210.25;;;13.11;99.59
11672;BME280;5892;43.412;24.612;2023-05-07T03:40:13;100233.59;;;13.35;96.93
11672;BME280;5892;43.412;24.612;2023-05-07T03:42:40;100227.81;;;13.66;95.59
11672;BME280;5892;43.412;24.612;2023-05-07T03:45:08;100242.06;;;14.30;92.98
11672;BME280;5892;43.412;24.612;2023-05-07T03:47:35;100246.97;;;14.66;89.30
11672;BME280;5892;43.412;24.612;2023-05-07T03:50:02;100245.41;;;15.22;86.96
11672;BME280;5892;43.412;24.612;2023-05-07T03:52:29;100249.03;;;15.59;84.44
11672;BME280;5892;43.412;24.612;2023-05-07T03:54:56;100248.22;;;15.95;79.36
11672;BME280;5892;43.412;24.612;2023-05-07T03:57:24;100257.66;;;15.57;81.26
11672;BME280;5892;43.412;24.612;2023-05-07T03:59:51;100258.53;;;16.10;79.53
11672;BME280;5892;43.412;24.612;2023-05-07T04:02:18;100253.84;;;15.86;79.13
11672;BME280;5892;43.412;24.612;2023-05-07T04:04:44;100261.56;;;16.05;78.65
11672;BME280;5892;43.412;24.612;2023-05-07T04:07:11;100266.03;;;16.49;75.05
11672;BME280;5892;43.412;24.612;2023-05-07T04:09:38;100233.53;;;16.19;75.19
11672;BME280;5892;43.412;24.612;2023-05-07T04:12:05;100266.03;;;16.49;74.03
11672;BME280;5892;43.412;24.612;2023-05-07T04:14:33;100271.88;;;16.32;75.29
11672;BME280;5892;43.412;24.612;2023-05-07T04:17:00;100275.19;;;16.38;74.50
11672;BME280;5892;43.412;24.612;2023-05-07T04:19:28;100274.44;;;16.53;73.62
11672;BME280;5892;43.412;24.612;2023-05-07T04:21:54;100266.88;;;16.78;71.79
11672;BME280;5892;43.412;24.612;2023-05-07T04:24:21;100282.75;;;16.53;73.29
11672;BME280;5892;43.412;24.612;2023-05-07T04:26:48;100262.84;;;16.47;74.48
11672;BME280;5892;43.412;24.612;2023-05-07T04:29:16;100294.63;;;16.53;74.26
11672;BME280;5892;43.412;24.612;2023-05-07T04:31:44;100279.31;;;16.84;73.00
11672;BME280;5892;43.412;24.612;2023-05-07T04:34:11;100289.19;;;17.13;71.71
11672;BME280;5892;43.412;24.612;2023-05-07T04:36:39;100290.09;;;17.48;69.96
11672;BME280;5892;43.412;24.612;2023-05-07T04:39:06;100277.75;;;17.14;69.84
11672;BME280;5892;43.412;24.612;2023-05-07T04:41:35;100295.31;;;17.06;70.61
11672;BME280;5892;43.412;24.612;2023-05-07T04:44:02;100269.59;;;16.90;70.96
11672;BME280;5892;43.412;24.612;2023-05-07T04:46:29;100259.38;;;16.78;70.76
11672;BME280;5892;43.412;24.612;2023-05-07T04:48:58;100304.47;;;16.79;71.09
11672;BME280;5892;43.412;24.612;2023-05-07T04:51:24;100304.50;;;16.67;72.66
11672;BME280;5892;43.412;24.612;2023-05-07T04:53:51;100286.19;;;16.62;72.33
11672;BME280;5892;43.412;24.612;2023-05-07T04:56:18;100301.59;;;17.03;72.49
11672;BME280;5892;43.412;24.612;2023-05-07T04:58:45;100301.34;;;17.24;71.77
11672;BME280;5892;43.412;24.612;2023-05-07T05:01:12;100279.19;;;17.24;71.21
11672;BME280;5892;43.412;24.612;2023-05-07T05:03:39;100307.22;;;17.66;70.75
11672;BME280;5892;43.412;24.612;2023-05-07T05:06:07;100301.41;;;17.87;68.56
11672;BME280;5892;43.412;24.612;2023-05-07T05:08:34;100311.16;;;17.65;69.75
11672;BME280;5892;43.412;24.612;2023-05-07T05:11:01;100297.13;;;17.73;69.06
11672;BME280;5892;43.412;24.612;2023-05-07T05:13:28;100302.94;;;17.84;69.11
11672;BME280;5892;43.412;24.612;2023-05-07T05:15:55;100303.25;;;17.98;68.56
11672;BME280;5892;43.412;24.612;2023-05-07T05:18:22;100303.72;;;18.35;68.02
11672;BME280;5892;43.412;24.612;2023-05-07T05:20:49;100300.19;;;18.54;66.75
11672;BME280;5892;43.412;24.612;2023-05-07T05:23:19;100302.47;;;18.33;66.75
11672;BME280;5892;43.412;24.612;2023-05-07T05:25:45;100309.34;;;18.39;67.08
11672;BME280;5892;43.412;24.612;2023-05-07T05:28:12;100304.72;;;18.81;65.69
11672;BME280;5892;43.412;24.612;2023-05-07T05:30:39;100283.72;;;18.45;66.58
11672;BME280;5892;43.412;24.612;2023-05-07T05:33:06;100313.16;;;18.50;67.06
11672;BME280;5892;43.412;24.612;2023-05-07T05:35:33;100309.38;;;18.96;65.23
11672;BME280;5892;43.412;24.612;2023-05-07T05:38:00;100304.38;;;19.25;64.47
11672;BME280;5892;43.412;24.612;2023-05-07T05:40:29;100298.44;;;19.45;63.98
11672;BME280;5892;43.412;24.612;2023-05-07T05:42:55;100301.16;;;19.65;63.46
11672;BME280;5892;43.412;24.612;2023-05-07T05:45:22;100315.69;;;20.04;61.49
11672;BME280;5892;43.412;24.612;2023-05-07T05:47:49;100312.78;;;20.23;60.81
11672;BME280;5892;43.412;24.612;2023-05-07T05:50:17;100311.03;;;20.38;60.29
11672;BME280;5892;43.412;24.612;2023-05-07T05:52:43;100312.13;;;20.59;58.93
11672;BME280;5892;43.412;24.612;2023-05-07T05:55:10;100307.66;;;20.81;57.44
11672;BME280;5892;43.412;24.612;2023-05-07T05:57:39;100315.34;;;20.95;55.93
11672;BME280;5892;43.412;24.612;2023-05-07T06:00:07;100307.34;;;21.23;54.62
11672;BME280;5892;43.412;24.612;2023-05-07T06:02:34;100324.13;;;21.30;54.81
11672;BME280;5892;43.412;24.612;2023-05-07T06:05:01;100321.09;;;21.42;53.52
11672;BME280;5892;43.412;24.612;2023-05-07T06:07:28;100322.88;;;21.65;52.08
11672;BME280;5892;43.412;24.612;2023-05-07T06:09:55;100322.66;;;21.84;52.02
11672;BME280;5892;43.412;24.612;2023-05-07T06:12:21;100292.94;;;22.02;52.07
11672;BME280;5892;43.412;24.612;2023-05-07T06:14:50;100311.66;;;21.98;45.48
11672;BME280;5892;43.412;24.612;2023-05-07T06:17:16;100324.00;;;22.01;44.49
11672;BME280;5892;43.412;24.612;2023-05-07T06:19:43;100305.72;;;22.03;41.05
11672;BME280;5892;43.412;24.612;2023-05-07T06:22:10;100323.81;;;21.79;40.29
11672;BME280;5892;43.412;24.612;2023-05-07T06:24:37;100318.00;;;21.51;40.54
11672;BME280;5892;43.412;24.612;2023-05-07T06:27:04;100311.81;;;21.72;40.71
11672;BME280;5892;43.412;24.612;2023-05-07T06:29:31;100302.94;;;22.10;40.73
11672;BME280;5892;43.412;24.612;2023-05-07T06:32:07;100304.13;;;22.09;39.95
11672;BME280;5892;43.412;24.612;2023-05-07T06:34:34;100302.28;;;22.27;38.97
11672;BME280;5892;43.412;24.612;2023-05-07T06:37:01;100313.19;;;22.50;38.43
11672;BME280;5892;43.412;24.612;2023-05-07T06:39:28;100318.78;;;22.50;38.47
11672;BME280;5892;43.412;24.612;2023-05-07T06:41:55;100311.72;;;22.74;37.01
11672;BME280;5892;43.412;24.612;2023-05-07T06:44:21;100311.50;;;22.38;35.78
11672;BME280;5892;43.412;24.612;2023-05-07T06:46:49;100296.28;;;22.25;37.26
11672;BME280;5892;43.412;24.612;2023-05-07T06:49:17;100316.22;;;22.27;35.90
11672;BME280;5892;43.412;24.612;2023-05-07T06:51:44;100312.75;;;22.45;36.48
11672;BME280;5892;43.412;24.612;2023-05-07T06:54:10;100303.50;;;22.33;36.15
11672;BME280;5892;43.412;24.612;2023-05-07T06:56:37;100312.56;;;22.13;36.40
11672;BME280;5892;43.412;24.612;2023-05-07T06:59:04;100311.94;;;22.44;37.09
11672;BME280;5892;43.412;24.612;2023-05-07T07:01:31;100314.00;;;22.58;36.46
11672;BME280;5892;43.412;24.612;2023-05-07T07:03:58;100299.16;;;22.43;36.33
11672;BME280;5892;43.412;24.612;2023-05-07T07:06:27;100314.44;;;22.60;36.68
11672;BME280;5892;43.412;24.612;2023-05-07T07:08:55;100307.50;;;22.32;36.60
11672;BME280;5892;43.412;24.612;2023-05-07T07:11:22;100245.00;;;21.93;38.17
11672;BME280;5892;43.412;24.612;2023-05-07T07:13:48;100305.94;;;22.38;39.00
11672;BME280;5892;43.412;24.612;2023-05-07T07:16:16;100313.19;;;22.50;39.11
11672;BME280;5892;43.412;24.612;2023-05-07T07:18:43;100309.16;;;22.48;39.49
11672;BME280;5892;43.412;24.612;2023-05-07T07:21:10;100313.31;;;22.78;39.13
11672;BME280;5892;43.412;24.612;2023-05-07T07:23:38;100311.81;;;22.99;38.10
11672;BME280;5892;43.412;24.612;2023-05-07T07:26:05;100318.19;;;22.99;38.62
11672;BME280;5892;43.412;24.612;2023-05-07T07:28:32;100315.84;;;23.12;39.91
11672;BME280;5892;43.412;24.612;2023-05-07T07:30:59;100319.72;;;22.83;38.63
11672;BME280;5892;43.412;24.612;2023-05-07T07:33:26;100321.63;;;22.68;39.03
11672;BME280;5892;43.412;24.612;2023-05-07T07:35:53;100313.25;;;22.64;39.27
11672;BME280;5892;43.412;24.612;2023-05-07T07:38:20;100321.25;;;22.66;39.67
11672;BME280;5892;43.412;24.612;2023-05-07T07:40:49;100322.00;;;22.66;38.74
11672;BME280;5892;43.412;24.612;2023-05-07T07:43:15;100327.69;;;22.73;38.60
11672;BME280;5892;43.412;24.612;2023-05-07T07:45:42;100318.72;;;22.47;38.85
11672;BME280;5892;43.412;24.612;2023-05-07T07:48:10;100319.69;;;22.72;39.49
11672;BME280;5892;43.412;24.612;2023-05-07T07:50:37;100324.09;;;22.73;37.56
11672;BME280;5892;43.412;24.612;2023-05-07T07:53:04;100333.31;;;22.88;36.50
11672;BME280;5892;43.412;24.612;2023-05-07T07:55:31;100321.34;;;22.84;34.22
11672;BME280;5892;43.412;24.612;2023-05-07T07:57:59;100321.25;;;22.66;34.35
11672;BME280;5892;43.412;24.612;2023-05-07T08:00:26;100319.59;;;22.61;32.91
11672;BME280;5892;43.412;24.612;2023-05-07T08:02:52;100323.19;;;22.55;34.46
11672;BME280;5892;43.412;24.612;2023-05-07T08:05:19;100306.41;;;22.55;34.79
11672;BME280;5892;43.412;24.612;2023-05-07T08:07:47;100303.84;;;23.01;35.05
11672;BME280;5892;43.412;24.612;2023-05-07T08:10:17;100311.50;;;23.29;35.20
11672;BME280;5892;43.412;24.612;2023-05-07T08:12:46;100308.69;;;23.18;36.42
11672;BME280;5892;43.412;24.612;2023-05-07T08:15:16;100305.84;;;22.97;36.32
11672;BME280;5892;43.412;24.612;2023-05-07T08:17:43;100296.66;;;23.03;36.66
11672;BME280;5892;43.412;24.612;2023-05-07T08:20:10;100315.47;;;23.20;35.06
11672;BME280;5892;43.412;24.612;2023-05-07T08:22:37;100300.28;;;23.14;35.60
11672;BME280;5892;43.412;24.612;2023-05-07T08:25:04;100297.94;;;23.45;35.57
11672;BME280;5892;43.412;24.612;2023-05-07T08:27:31;100294.72;;;23.21;34.41
11672;BME280;5892;43.412;24.612;2023-05-07T08:29:58;100301.50;;;23.24;34.31
11672;BME280;5892;43.412;24.612;2023-05-07T08:32:26;100298.69;;;23.24;33.26
11672;BME280;5892;43.412;24.612;2023-05-07T08:34:54;100311.13;;;23.34;33.14
11672;BME280;5892;43.412;24.612;2023-05-07T08:37:20;100307.50;;;23.30;33.98
11672;BME280;5892;43.412;24.612;2023-05-07T08:39:47;100291.19;;;23.56;33.98
11672;BME280;5892;43.412;24.612;2023-05-07T08:42:16;100306.31;;;23.38;32.96
11672;BME280;5892;43.412;24.612;2023-05-07T08:44:45;100295.13;;;23.38;32.49
11672;BME280;5892;43.412;24.612;2023-05-07T08:47:12;100278.34;;;23.38;33.27
11672;BME280;5892;43.412;24.612;2023-05-07T08:49:40;100283.94;;;23.45;32.99
11672;BME280;5892;43.412;24.612;2023-05-07T08:52:07;100266.38;;;23.23;32.77
11672;BME280;5892;43.412;24.612;2023-05-07T08:54:36;100281.53;;;23.40;32.86
11672;BME280;5892;43.412;24.612;2023-05-07T08:57:04;100266.00;;;23.53;32.78
11672;BME280;5892;43.412;24.612;2023-05-07T08:59:30;100283.22;;;23.69;31.79
11672;BME280;5892;43.412;24.612;2023-05-07T09:01:57;100285.59;;;23.81;31.86
11672;BME280;5892;43.412;24.612;2023-05-07T09:04:24;100280.00;;;23.88;31.47
11672;BME280;5892;43.412;24.612;2023-05-07T09:06:53;100293.97;;;23.88;30.93
11672;BME280;5892;43.412;24.612;2023-05-07T09:09:21;100285.56;;;23.92;32.09
11672;BME280;5892;43.412;24.612;2023-05-07T09:11:56;100293.16;;;23.98;32.11
11672;BME280;5892;43.412;24.612;2023-05-07T09:14:24;100283.97;;;23.94;32.11
11672;BME280;5892;43.412;24.612;2023-05-07T09:16:52;100276.41;;;23.91;32.38
11672;BME280;5892;43.412;24.612;2023-05-07T09:19:22;100264.81;;;23.89;30.78
11672;BME280;5892;43.412;24.612;2023-05-07T09:21:49;100271.97;;;23.97;31.52
11672;BME280;5892;43.412;24.612;2023-05-07T09:24:17;100271.97;;;24.19;33.10
11672;BME280;5892;43.412;24.612;2023-05-07T09:26:44;100276.78;;;24.04;30.60
11672;BME280;5892;43.412;24.612;2023-05-07T09:29:11;100278.41;;;23.91;31.67
11672;BME280;5892;43.412;24.612;2023-05-07T09:31:38;100278.78;;;24.03;30.30
11672;BME280;5892;43.412;24.612;2023-05-07T09:34:05;100264.38;;;24.08;29.75
11672;BME280;5892;43.412;24.612;2023-05-07T09:36:33;100264.81;;;23.82;30.52
11672;BME280;5892;43.412;24.612;2023-05-07T09:39:00;100266.00;;;23.95;30.24
11672;BME280;5892;43.412;24.612;2023-05-07T09:41:29;100224.84;;;23.71;31.67
11672;BME280;5892;43.412;24.612;2023-05-07T09:43:57;100250.44;;;23.59;30.44
11672;BME280;5892;43.412;24.612;2023-05-07T09:46:30;100262.41;;;23.63;30.43
11672;BME280;5892;43.412;24.612;2023-05-07T09:48:57;100260.03;;;23.86;31.05
11672;BME280;5892;43.412;24.612;2023-05-07T09:51:29;100251.19;;;24.05;30.21
11672;BME280;5892;43.412;24.612;2023-05-07T09:53:57;100261.56;;;24.19;30.74
11672;BME280;5892;43.412;24.612;2023-05-07T09:56:28;100252.78;;;24.21;30.49
11672;BME280;5892;43.412;24.612;2023-05-07T09:58:57;100242.75;;;24.30;30.51
11672;BME280;5892;43.412;24.612;2023-05-07T10:01:26;100251.91;;;24.41;30.03
11672;BME280;5892;43.412;24.612;2023-05-07T10:03:53;100252.66;;;24.56;30.33
11672;BME280;5892;43.412;24.612;2023-05-07T10:06:22;100255.88;;;24.55;30.19
11672;BME280;5892;43.412;24.612;2023-05-07T10:08:49;100247.19;;;24.21;30.64
11672;BME280;5892;43.412;24.612;2023-05-07T10:11:17;100252.78;;;24.06;30.44
11672;BME280;5892;43.412;24.612;2023-05-07T10:13:46;100248.78;;;24.04;30.16
11672;BME280;5892;43.412;24.612;2023-05-07T10:16:14;100246.81;;;23.94;30.31
11672;BME280;5892;43.412;24.612;2023-05-07T10:18:42;100244.00;;;24.01;30.85
11672;BME280;5892;43.412;24.612;2023-05-07T10:21:16;100238.75;;;24.14;30.93
11672;BME280;5892;43.412;24.612;2023-05-07T10:23:45;100219.25;;;23.68;31.09
11672;BME280;5892;43.412;24.612;2023-05-07T10:26:13;100225.59;;;24.00;30.31
11672;BME280;5892;43.412;24.612;2023-05-07T10:28:44;100235.16;;;24.10;30.57
11672;BME280;5892;43.412;24.612;2023-05-07T10:31:29;100230.78;;;23.98;30.08
11672;BME280;5892;43.412;24.612;2023-05-07T10:34:03;100223.19;;;23.98;30.61
11672;BME280;5892;43.412;24.612;2023-05-07T10:36:35;100218.38;;;24.10;30.61
11672;BME280;5892;43.412;24.612;2023-05-07T10:39:02;100223.94;;;24.24;30.50
11672;BME280;5892;43.412;24.612;2023-05-07T10:41:29;100220.69;;;24.39;30.84
11672;BME280;5892;43.412;24.612;2023-05-07T10:43:56;100219.53;;;24.37;29.08
11672;BME280;5892;43.412;24.612;2023-05-07T10:46:24;100219.19;;;24.10;30.20
11672;BME280;5892;43.412;24.612;2023-05-07T10:49:07;100216.78;;;24.05;29.87
11672;BME280;5892;43.412;24.612;2023-05-07T10:51:35;100211.97;;;24.13;29.80
11672;BME280;5892;43.412;24.612;2023-05-07T10:54:21;100200.81;;;23.88;30.08
11672;BME280;5892;43.412;24.612;2023-05-07T10:56:49;100214.44;;;23.82;30.28
11672;BME280;5892;43.412;24.612;2023-05-07T10:59:36;100203.22;;;24.00;29.61
11672;BME280;5892;43.412;24.612;2023-05-07T11:02:10;100204.81;;;23.97;29.67
11672;BME280;5892;43.412;24.612;2023-05-07T11:04:39;100194.38;;;24.12;29.68
11672;BME280;5892;43.412;24.612;2023-05-07T11:07:34;100199.16;;;24.15;29.23
11672;BME280;5892;43.412;24.612;2023-05-07T11:10:02;100190.34;;;24.24;28.94
11672;BME280;5892;43.412;24.612;2023-05-07T11:12:47;100189.56;;;24.20;29.74
11672;BME280;5892;43.412;24.612;2023-05-07T11:15:14;100197.53;;;24.32;30.18
11672;BME280;5892;43.412;24.612;2023-05-07T11:17:54;100186.44;;;23.93;29.73
11672;BME280;5892;43.412;24.612;2023-05-07T11:20:50;100184.06;;;23.81;29.55
11672;BME280;5892;43.412;24.612;2023-05-07T11:26:44;100181.19;;;24.05;29.46
11672;BME280;5892;43.412;24.612;2023-05-07T11:29:12;100187.16;;;24.18;29.75
11672;BME280;5892;43.412;24.612;2023-05-07T11:31:40;100186.78;;;24.09;29.85
11672;BME280;5892;43.412;24.612;2023-05-07T11:34:08;100128.09;;;23.84;29.22
11672;BME280;5892;43.412;24.612;2023-05-07T11:36:41;100187.56;;;24.20;30.10
11672;BME280;5892;43.412;24.612;2023-05-07T11:39:26;100161.19;;;24.11;29.10
11672;BME280;5892;43.412;24.612;2023-05-07T11:41:54;100180.78;;;24.11;29.58
11672;BME280;5892;43.412;24.612;2023-05-07T11:44:21;100187.97;;;24.26;29.31
11672;BME280;5892;43.412;24.612;2023-05-07T11:46:48;100163.63;;;23.98;30.21
11672;BME280;5892;43.412;24.612;2023-05-07T11:49:17;100168.38;;;24.12;29.71
11672;BME280;5892;43.412;24.612;2023-05-07T11:51:44;100175.56;;;24.27;29.67
11672;BME280;5892;43.412;24.612;2023-05-07T11:54:15;100173.50;;;24.38;29.74
11672;BME280;5892;43.412;24.612;2023-05-07T11:56:43;100178.22;;;24.55;29.39
11672;BME280;5892;43.412;24.612;2023-05-07T11:59:11;100178.22;;;24.59;29.49
11672;BME280;5892;43.412;24.612;2023-05-07T12:01:38;100165.44;;;24.51;29.51
11672;BME280;5892;43.412;24.612;2023-05-07T12:04:05;100171.97;;;24.26;29.25
11672;BME280;5892;43.412;24.612;2023-05-07T12:06:36;100163.09;;;24.35;29.87
11672;BME280;5892;43.412;24.612;2023-05-07T12:09:03;100173.50;;;24.38;29.59
11672;BME280;5892;43.412;24.612;2023-05-07T12:11:32;100160.81;;;23.98;30.56
11672;BME280;5892;43.412;24.612;2023-05-07T12:14:02;100167.25;;;23.95;30.38
11672;BME280;5892;43.412;24.612;2023-05-07T12:16:29;100160.44;;;23.99;30.38
11672;BME280;5892;43.412;24.612;2023-05-07T12:18:57;100154.81;;;24.06;30.14
11672;BME280;5892;43.412;24.612;2023-05-07T12:21:24;100139.28;;;23.91;30.94
11672;BME280;5892;43.412;24.612;2023-05-07T12:23:53;100154.41;;;24.12;30.92
11672;BME280;5892;43.412;24.612;2023-05-07T12:26:19;100151.16;;;24.17;30.69
11672;BME280;5892;43.412;24.612;2023-05-07T12:28:47;100144.69;;;24.41;29.52
11672;BME280;5892;43.412;24.612;2023-05-07T12:31:14;100148.66;;;24.47;30.16
11672;BME280;5892;43.412;24.612;2023-05-07T12:33:42;100142.19;;;24.57;30.39
11672;BME280;5892;43.412;24.612;2023-05-07T12:36:11;100143.69;;;24.72;30.46
11672;BME280;5892;43.412;24.612;2023-05-07T12:38:39;100134.13;;;24.70;30.42
11672;BME280;5892;43.412;24.612;2023-05-07T12:41:09;100147.88;;;24.43;29.53
11672;BME280;5892;43.412;24.612;2023-05-07T12:43:37;100122.59;;;24.50;30.19
11672;BME280;5892;43.412;24.612;2023-05-07T12:46:05;100135.94;;;24.25;30.03
11672;BME280;5892;43.412;24.612;2023-05-07T12:48:33;100134.31;;;24.38;30.41
11672;BME280;5892;43.412;24.612;2023-05-07T12:51:00;100128.63;;;24.52;30.34
11672;BME280;5892;43.412;24.612;2023-05-07T12:53:29;100118.53;;;24.62;29.75
11672;BME280;5892;43.412;24.612;2023-05-07T12:55:57;100131.41;;;24.52;29.84